createdAt,value
2022-12-19T00:02:35.839Z,72.47
2022-12-19T00:05:57.417Z,71.59
2022-12-19T00:09:20.436Z,71.30
2022-12-19T00:12:42.186Z,71.38
2022-12-19T00:16:05.279Z,72.72
2022-12-19T00:19:27.089Z,71.68
2022-12-19T00:22:48.657Z,71.56
2022-12-19T00:26:18.629Z,71.54
2022-12-19T00:29:41.625Z,72.25
2022-12-19T00:33:03.288Z,72.28
2022-12-19T00:36:26.639Z,71.71
2022-12-19T00:39:48.096Z,71.06
2022-12-19T00:43:11.237Z,72.15
2022-12-19T00:46:34.498Z,72.08
2022-12-19T00:49:56.256Z,71.31
2022-12-19T00:53:18.001Z,72.01
2022-12-19T00:56:39.468Z,70.76
2022-12-19T01:00:06.020Z,71.26
2022-12-19T01:03:27.690Z,71.41
2022-12-19T01:06:49.517Z,71.59
2022-12-19T01:10:11.881Z,70.78
2022-12-19T01:13:35.635Z,70.90
2022-12-19T01:17:05.020Z,71.55
2022-12-19T01:20:28.987Z,71.31
2022-12-19T01:23:51.564Z,70.87
2022-12-19T01:27:13.328Z,72.18
2022-12-19T01:30:35.727Z,71.80
2022-12-19T01:34:02.563Z,71.38
2022-12-19T01:37:24.061Z,72.45
2022-12-19T01:40:51.200Z,71.74
2022-12-19T01:44:14.601Z,71.24
2022-12-19T01:47:45.161Z,71.64
2022-12-19T01:51:17.541Z,71.52
2022-12-19T01:54:42.081Z,71.52
2022-12-19T01:58:04.547Z,71.45
2022-12-19T02:01:26.777Z,71.10
2022-12-19T02:04:49.347Z,71.96
2022-12-19T02:08:12.748Z,72.19
2022-12-19T02:11:34.424Z,71.35
2022-12-19T02:15:02.650Z,70.82
2022-12-19T02:18:36.565Z,70.98
2022-12-19T02:22:05.793Z,71.68
2022-12-19T02:25:49.572Z,72.12
2022-12-19T02:29:24.974Z,70.67
2022-12-19T02:32:58.459Z,71.99
2022-12-19T02:36:23.995Z,71.86
2022-12-19T02:39:50.873Z,71.59
2022-12-19T02:43:14.773Z,70.52
2022-12-19T02:46:36.735Z,71.69
2022-12-19T02:49:59.883Z,71.91
2022-12-19T02:53:24.030Z,71.78
2022-12-19T02:56:56.263Z,70.68
2022-12-19T03:00:21.821Z,70.75
2022-12-19T03:03:51.690Z,71.18
2022-12-19T03:07:27.155Z,71.13
2022-12-19T03:10:55.662Z,71.44
2022-12-19T03:14:22.142Z,71.59
2022-12-19T03:17:49.766Z,71.01
2022-12-19T03:21:18.993Z,71.40
2022-12-19T03:24:41.997Z,71.71
2022-12-19T03:28:08.156Z,71.37
2022-12-19T03:31:32.601Z,71.74
2022-12-19T03:35:00.699Z,71.13
2022-12-19T03:38:23.778Z,70.64
2022-12-19T03:42:04.442Z,71.52
2022-12-19T03:45:32.402Z,70.79
2022-12-19T03:48:55.386Z,71.79
2022-12-19T03:52:26.852Z,70.72
2022-12-19T03:55:51.672Z,71.80
2022-12-19T03:59:20.779Z,70.76
2022-12-19T04:02:46.035Z,71.33
2022-12-19T04:06:08.103Z,71.96
2022-12-19T04:09:31.570Z,71.88
2022-12-19T04:12:59.755Z,71.19
2022-12-19T04:16:31.143Z,70.59
2022-12-19T04:19:58.820Z,70.62
2022-12-19T04:23:25.836Z,71.49
2022-12-19T04:26:50.473Z,71.84
2022-12-19T04:30:15.817Z,70.94
2022-12-19T04:33:38.503Z,71.40
2022-12-19T04:37:07.671Z,71.76
2022-12-19T04:40:29.278Z,71.84
2022-12-19T04:43:51.014Z,71.80
2022-12-19T04:47:12.492Z,71.77
2022-12-19T04:50:36.787Z,70.51
2022-12-19T04:53:58.535Z,70.36
2022-12-19T04:57:20.050Z,71.10
2022-12-19T05:00:41.800Z,71.46
2022-12-19T05:04:04.843Z,70.49
2022-12-19T05:07:28.200Z,70.99
2022-12-19T05:10:49.740Z,71.20
2022-12-19T05:14:11.537Z,70.95
2022-12-19T05:17:33.468Z,70.46
2022-12-19T05:20:55.440Z,71.64
2022-12-19T05:24:18.514Z,70.63
2022-12-19T05:27:40.104Z,71.36
2022-12-19T05:31:07.625Z,70.80
2022-12-19T05:34:29.481Z,70.97
2022-12-19T05:37:51.031Z,71.62
2022-12-19T05:41:18.596Z,71.16
2022-12-19T05:44:39.809Z,71.74
2022-12-19T05:48:01.781Z,71.73
2022-12-19T05:51:23.652Z,71.58
2022-12-19T05:54:45.731Z,71.77
2022-12-19T05:58:08.696Z,71.04
2022-12-19T06:01:30.655Z,72.07
2022-12-19T06:04:52.302Z,71.92
2022-12-19T06:08:14.247Z,71.34
2022-12-19T06:11:36.052Z,71.49
2022-12-19T06:14:59.087Z,72.04
2022-12-19T06:18:20.660Z,72.92
2022-12-19T06:21:47.976Z,72.22
2022-12-19T06:25:10.902Z,72.53
2022-12-19T06:28:33.305Z,72.48
2022-12-19T06:31:56.114Z,72.54
2022-12-19T06:35:17.664Z,72.79
2022-12-19T06:38:39.103Z,72.00
2022-12-19T06:42:17.686Z,73.01
2022-12-19T06:45:39.145Z,72.05
2022-12-19T06:49:02.309Z,72.80
2022-12-19T06:52:23.949Z,72.67
2022-12-19T06:55:49.436Z,72.92
2022-12-19T06:59:13.929Z,74.30
2022-12-19T07:02:35.907Z,73.70
2022-12-19T07:05:58.726Z,73.06
2022-12-19T07:09:21.589Z,72.73
2022-12-19T07:12:42.964Z,73.64
2022-12-19T07:16:06.614Z,73.12
2022-12-19T07:19:29.369Z,72.55
2022-12-19T07:22:52.456Z,72.51
2022-12-19T07:26:14.049Z,73.09
2022-12-19T07:29:35.944Z,73.69
2022-12-19T07:32:57.776Z,72.61
2022-12-19T07:36:19.681Z,73.08
2022-12-19T07:39:42.903Z,72.53
2022-12-19T07:43:05.906Z,73.60
2022-12-19T07:46:29.845Z,72.97
2022-12-19T07:49:51.340Z,72.99
2022-12-19T07:53:12.819Z,72.76
2022-12-19T07:56:35.947Z,73.12
2022-12-19T07:59:58.510Z,72.48
2022-12-19T08:03:20.310Z,71.97
2022-12-19T08:06:42.012Z,71.92
2022-12-19T08:10:03.865Z,72.47
2022-12-19T08:13:29.043Z,71.79
2022-12-19T08:20:34.399Z,71.85
2022-12-19T08:23:56.440Z,71.96
2022-12-19T08:27:18.806Z,71.54
2022-12-19T08:30:42.700Z,71.91
2022-12-19T08:34:04.168Z,72.05
2022-12-19T08:37:25.845Z,72.05
2022-12-19T08:40:53.622Z,71.60
2022-12-19T08:44:15.463Z,71.94
2022-12-19T08:47:38.532Z,71.80
2022-12-19T08:51:01.712Z,71.84
2022-12-19T08:54:23.571Z,71.83
2022-12-19T08:57:45.254Z,71.37
2022-12-19T09:01:09.989Z,71.30
2022-12-19T09:05:57.446Z,71.35
2022-12-19T09:08:14.848Z,71.03
2022-12-19T09:11:40.904Z,70.90
2022-12-19T09:15:10.523Z,70.72
2022-12-19T09:18:32.961Z,70.30
2022-12-19T09:21:55.650Z,69.61
2022-12-19T09:25:17.631Z,69.89
2022-12-19T09:28:40.937Z,70.26
2022-12-19T09:32:02.593Z,69.40
2022-12-19T09:35:28.535Z,69.64
2022-12-19T09:38:54.712Z,69.65
2022-12-19T09:42:29.365Z,69.18
2022-12-19T09:46:01.968Z,69.40
2022-12-19T09:49:25.817Z,69.04
2022-12-19T09:52:52.112Z,69.60
2022-12-19T09:56:16.769Z,69.38
2022-12-19T09:59:49.584Z,69.61
2022-12-19T10:03:22.891Z,69.31
2022-12-19T10:07:22.190Z,69.12
2022-12-19T10:12:46.407Z,67.90
2022-12-19T10:14:43.821Z,67.84
2022-12-19T10:18:31.078Z,67.88
2022-12-19T10:22:18.331Z,67.59
2022-12-19T10:25:52.701Z,67.79
2022-12-19T10:29:31.197Z,67.65
2022-12-19T10:33:01.728Z,67.95
2022-12-19T10:36:48.655Z,67.64
2022-12-19T10:40:27.664Z,66.83
2022-12-19T10:44:00.139Z,66.68
2022-12-19T10:47:23.279Z,67.41
2022-12-19T10:50:45.277Z,67.17
2022-12-19T10:54:06.708Z,67.21
2022-12-19T10:57:30.354Z,67.20
2022-12-19T11:01:05.124Z,66.37
2022-12-19T11:04:35.330Z,65.99
2022-12-19T11:08:03.713Z,66.17
2022-12-19T11:14:15.197Z,67.22
2022-12-19T11:20:18.975Z,67.63
2022-12-19T11:29:40.134Z,67.42
2022-12-19T11:29:40.836Z,67.53
2022-12-19T11:30:46.938Z,67.54
2022-12-19T11:34:07.567Z,67.99
2022-12-19T11:37:38.999Z,68.56
2022-12-19T11:41:10.867Z,67.96
2022-12-19T11:44:40.041Z,67.60
2022-12-19T11:48:10.467Z,68.00
2022-12-19T11:51:40.636Z,67.92
2022-12-19T11:55:07.460Z,67.46
2022-12-19T11:58:30.891Z,67.27
2022-12-19T12:02:31.420Z,67.12
2022-12-19T12:05:55.363Z,68.00
2022-12-19T12:13:52.072Z,67.79
2022-12-19T12:24:22.381Z,68.75
2022-12-19T12:31:07.991Z,68.77
2022-12-19T12:31:10.656Z,69.28
2022-12-19T12:31:22.107Z,69.34
2022-12-19T12:31:53.737Z,69.92
2022-12-19T12:35:42.373Z,70.82
2022-12-19T12:40:55.919Z,72.38
2022-12-19T12:44:18.459Z,73.12
2022-12-19T12:47:55.669Z,73.64
2022-12-19T12:51:18.550Z,73.88
2022-12-19T12:54:43.943Z,74.03
2022-12-19T12:58:09.178Z,74.44
2022-12-19T13:01:37.696Z,75.03
2022-12-19T13:05:02.146Z,75.54
2022-12-19T13:08:35.381Z,75.98
2022-12-19T13:12:20.456Z,76.13
2022-12-19T13:15:44.023Z,76.70
2022-12-19T13:19:20.974Z,76.74
2022-12-19T13:23:04.347Z,77.57
2022-12-19T13:26:51.124Z,77.92
2022-12-19T13:30:18.340Z,78.16
2022-12-19T13:33:47.108Z,78.69
2022-12-19T13:40:01.457Z,79.49
2022-12-19T13:41:47.665Z,79.74
2022-12-19T13:45:14.654Z,79.98
2022-12-19T13:48:42.649Z,80.47
2022-12-19T13:52:05.869Z,80.35
2022-12-19T13:55:29.989Z,80.89
2022-12-19T13:58:56.547Z,81.07
2022-12-19T14:02:27.130Z,81.13
2022-12-19T14:06:16.450Z,81.79
2022-12-19T14:11:26.902Z,81.88
2022-12-19T14:13:51.022Z,81.73
2022-12-19T14:17:22.977Z,82.13
2022-12-19T14:22:05.677Z,82.30
2022-12-19T14:24:26.344Z,82.64
2022-12-19T14:28:26.610Z,82.66
2022-12-19T14:31:36.967Z,82.94
2022-12-19T14:36:06.441Z,83.00
2022-12-19T14:39:23.728Z,83.45
2022-12-19T14:43:58.855Z,83.43
2022-12-19T14:54:03.376Z,83.64
2022-12-19T14:54:07.367Z,84.05
2022-12-19T14:58:51.119Z,84.41
2022-12-19T15:01:54.605Z,84.68
2022-12-19T15:05:18.374Z,84.53
2022-12-19T15:09:02.629Z,84.86
2022-12-19T15:13:47.196Z,85.03
2022-12-19T15:16:31.452Z,84.49
2022-12-19T15:19:53.609Z,85.26
2022-12-19T15:23:19.931Z,85.21
2022-12-19T15:26:48.929Z,85.37
2022-12-19T15:30:16.108Z,85.86
2022-12-19T15:33:48.072Z,85.61
2022-12-19T15:37:19.188Z,85.72
2022-12-19T15:40:42.884Z,85.55
2022-12-19T15:44:10.737Z,85.96
2022-12-19T15:47:34.553Z,85.86
2022-12-19T15:50:56.024Z,86.10
2022-12-19T15:58:02.425Z,86.49
2022-12-19T16:01:26.844Z,86.53
2022-12-19T16:04:49.944Z,87.04
2022-12-19T16:08:13.070Z,87.60
2022-12-19T16:11:34.711Z,87.15
2022-12-19T16:14:59.273Z,87.34
2022-12-19T16:18:22.701Z,87.41
2022-12-19T16:21:44.905Z,87.28
2022-12-19T16:25:07.673Z,87.47
2022-12-19T16:28:31.861Z,87.85
2022-12-19T16:31:54.945Z,87.27
2022-12-19T16:35:40.149Z,87.79
2022-12-19T16:39:02.050Z,88.46
2022-12-19T16:42:23.471Z,87.89
2022-12-19T16:45:45.991Z,88.37
2022-12-19T16:49:14.314Z,88.48
2022-12-19T16:52:42.350Z,87.71
2022-12-19T16:56:04.646Z,87.59
2022-12-19T16:59:31.841Z,88.66
2022-12-19T17:02:57.441Z,88.47
2022-12-19T17:06:20.937Z,89.00
2022-12-19T17:09:44.059Z,89.28
2022-12-19T17:13:06.015Z,89.17
2022-12-19T17:16:27.765Z,89.28
2022-12-19T17:19:49.441Z,89.12
2022-12-19T17:23:15.922Z,88.79
2022-12-19T17:26:38.931Z,88.89
2022-12-19T17:30:01.313Z,88.89
2022-12-19T17:33:26.809Z,88.69
2022-12-19T17:36:48.827Z,88.82
2022-12-19T17:40:17.699Z,88.63
2022-12-19T17:43:40.574Z,88.90
2022-12-19T17:47:02.407Z,88.97
2022-12-19T17:50:27.311Z,88.88
2022-12-19T17:53:49.466Z,89.17
2022-12-19T17:57:14.265Z,89.18
2022-12-19T18:00:37.140Z,89.12
2022-12-19T18:03:58.995Z,88.70
2022-12-19T18:07:20.841Z,89.45
2022-12-19T18:10:42.325Z,89.04
2022-12-19T18:14:04.248Z,88.80
2022-12-19T18:17:27.420Z,89.07
2022-12-19T18:20:50.096Z,89.06
2022-12-19T18:24:12.979Z,89.33
2022-12-19T18:27:34.547Z,89.78
2022-12-19T18:31:01.193Z,89.27
2022-12-19T18:34:26.099Z,89.36
2022-12-19T18:37:49.026Z,89.53
2022-12-19T18:41:11.923Z,90.19
2022-12-19T18:44:33.688Z,90.15
2022-12-19T18:47:58.524Z,90.10
2022-12-19T18:51:23.247Z,90.45
2022-12-19T18:54:44.978Z,91.10
2022-12-19T18:58:07.091Z,90.40
2022-12-19T19:01:28.620Z,90.39
2022-12-19T19:04:50.799Z,91.86
2022-12-19T19:08:18.336Z,91.65
2022-12-19T19:11:45.297Z,90.84
2022-12-19T19:15:07.976Z,90.83
2022-12-19T19:18:33.043Z,90.88
2022-12-19T19:21:55.369Z,90.90
2022-12-19T19:25:18.673Z,90.62
2022-12-19T19:28:40.162Z,90.43
2022-12-19T19:32:02.242Z,91.31
2022-12-19T19:35:24.388Z,90.93
2022-12-19T19:38:49.864Z,90.98
2022-12-19T19:42:12.582Z,90.37
2022-12-19T19:45:41.194Z,90.04
2022-12-19T19:49:04.796Z,89.93
2022-12-19T19:52:26.186Z,89.91
2022-12-19T19:55:55.929Z,90.21
2022-12-19T19:59:18.872Z,90.46
2022-12-19T20:02:40.796Z,89.88
2022-12-19T20:06:02.837Z,89.96
2022-12-19T20:09:24.416Z,90.09
2022-12-19T20:12:46.725Z,89.85
2022-12-19T20:16:12.168Z,89.91
2022-12-19T20:19:33.690Z,89.54
2022-12-19T20:22:55.517Z,89.65
2022-12-19T20:26:18.179Z,89.96
2022-12-19T20:29:39.899Z,89.65
2022-12-19T20:33:03.031Z,89.32
2022-12-19T20:36:25.484Z,89.30
2022-12-19T20:39:46.972Z,89.11
2022-12-19T20:43:08.813Z,88.87
2022-12-19T20:46:30.503Z,88.38
2022-12-19T20:49:53.589Z,88.19
2022-12-19T20:53:15.035Z,88.10
2022-12-19T20:56:37.167Z,87.71
2022-12-19T20:59:58.527Z,87.44
2022-12-19T21:03:29.461Z,88.02
2022-12-19T21:06:53.080Z,88.10
2022-12-19T21:10:14.845Z,87.62
2022-12-19T21:13:37.534Z,87.67
2022-12-19T21:16:59.192Z,87.39
2022-12-19T21:20:20.964Z,87.26
2022-12-19T21:23:44.839Z,87.61
2022-12-19T21:27:06.238Z,87.50
2022-12-19T21:30:27.811Z,86.99
2022-12-19T21:33:51.067Z,86.88
2022-12-19T21:37:12.364Z,86.38
2022-12-19T21:40:36.994Z,86.59
2022-12-19T21:44:00.475Z,86.36
2022-12-19T21:47:22.491Z,86.04
2022-12-19T21:50:44.419Z,85.86
2022-12-19T21:54:07.060Z,85.72
2022-12-19T21:57:29.821Z,85.80
2022-12-19T22:00:51.160Z,85.91
2022-12-19T22:04:15.337Z,85.22
2022-12-19T22:07:37.061Z,85.18
2022-12-19T22:10:58.706Z,85.35
2022-12-19T22:14:21.871Z,85.50
2022-12-19T22:17:43.868Z,85.33
2022-12-19T22:21:06.690Z,85.24
2022-12-19T22:24:28.162Z,85.33
2022-12-19T22:27:49.764Z,85.21
2022-12-19T22:31:21.270Z,85.33
2022-12-19T22:34:42.804Z,85.24
2022-12-19T22:38:04.662Z,84.80
2022-12-19T22:41:27.757Z,84.72
2022-12-19T22:44:49.411Z,85.01
2022-12-19T22:48:12.531Z,84.91
2022-12-19T22:51:35.571Z,84.09
2022-12-19T22:54:57.120Z,84.45
2022-12-19T22:58:18.800Z,84.12
2022-12-19T23:01:42.864Z,84.36
2022-12-19T23:05:07.105Z,84.14
2022-12-19T23:08:28.586Z,83.95
2022-12-19T23:11:50.705Z,84.03
2022-12-19T23:15:12.520Z,83.77
2022-12-19T23:18:34.279Z,84.04
2022-12-19T23:21:57.069Z,84.11
2022-12-19T23:25:18.846Z,84.20
2022-12-19T23:28:40.672Z,84.15
2022-12-19T23:32:02.563Z,83.99
2022-12-19T23:35:24.287Z,84.02
2022-12-19T23:38:47.500Z,83.62
2022-12-19T23:42:09.398Z,83.64
2022-12-19T23:45:31.085Z,84.20
2022-12-19T23:48:54.399Z,83.35
2022-12-19T23:52:16.244Z,83.89
2022-12-19T23:55:39.323Z,83.57
2022-12-19T23:59:01.535Z,83.75
